METAR Data
IDs: Format: Raw Decoded Include TAF

Data at: 0241 UTC 16 Oct 2018

KSET 160154Z AUTO 00000KT 10SM CLR 06/02 A3032 RMK AO2 SLP269 T00560017
No TAF found for KSET

KSTL 160151Z 32003KT 10SM BKN250 06/02 A3032 RMK AO2 SLP275 T00560017

KSTL 152338Z 1600/1706 32005KT P6SM BKN250
  FM160300 VRB04KT P6SM SCT250
  FM161500 25009KT P6SM SKC
  FM170000 26005KT P6SM SKC